createdAt,value
2022-10-05T00:02:22.913Z,14.97
2022-10-05T00:04:53.699Z,14.96
2022-10-05T00:07:22.250Z,14.96
2022-10-05T00:10:09.268Z,14.90
2022-10-05T00:12:35.725Z,14.88
2022-10-05T00:15:07.020Z,14.83
2022-10-05T00:17:33.394Z,14.83
2022-10-05T00:19:59.915Z,14.87
2022-10-05T00:22:32.253Z,14.84
2022-10-05T00:25:01.307Z,14.82
2022-10-05T00:27:34.009Z,14.85
2022-10-05T00:30:11.198Z,14.83
2022-10-05T00:32:37.576Z,14.81
2022-10-05T00:35:04.222Z,14.90
2022-10-05T00:37:30.638Z,14.89
2022-10-05T00:39:57.226Z,14.87
2022-10-05T00:42:53.745Z,14.83
2022-10-05T00:45:32.120Z,14.84
2022-10-05T00:48:19.908Z,14.85
2022-10-05T00:51:13.226Z,14.78
2022-10-05T00:54:28.053Z,14.73
2022-10-05T00:57:19.122Z,14.72
2022-10-05T01:00:07.389Z,14.73
2022-10-05T01:02:46.081Z,14.64
2022-10-05T01:05:57.049Z,14.68
2022-10-05T01:08:50.753Z,14.68
2022-10-05T01:11:23.813Z,14.67
2022-10-05T01:14:06.482Z,14.64
2022-10-05T01:16:51.003Z,14.62
2022-10-05T01:20:03.837Z,14.65
2022-10-05T01:22:41.425Z,14.66
2022-10-05T01:25:26.892Z,14.62
2022-10-05T01:27:57.268Z,14.63
2022-10-05T01:30:23.774Z,14.63
2022-10-05T01:33:09.349Z,14.63
2022-10-05T01:36:03.519Z,14.63
2022-10-05T01:38:44.976Z,14.65
2022-10-05T01:41:25.371Z,14.57
2022-10-05T01:44:31.203Z,14.60
2022-10-05T01:47:06.761Z,14.55
2022-10-05T01:49:38.298Z,14.45
2022-10-05T01:52:46.552Z,14.45
2022-10-05T01:55:31.011Z,14.43
2022-10-05T01:57:57.419Z,14.44
2022-10-05T02:00:23.971Z,14.38
2022-10-05T02:03:16.133Z,14.35
2022-10-05T02:05:57.986Z,14.40
2022-10-05T02:08:31.237Z,14.35
2022-10-05T02:11:07.833Z,14.34
2022-10-05T02:13:48.880Z,14.33
2022-10-05T02:16:26.573Z,14.33
2022-10-05T02:19:09.187Z,14.35
2022-10-05T02:21:36.482Z,14.37
2022-10-05T02:24:09.908Z,14.32
2022-10-05T02:26:37.435Z,14.30
2022-10-05T02:29:09.500Z,14.32
2022-10-05T02:31:50.489Z,14.29
2022-10-05T02:34:27.959Z,14.34
2022-10-05T02:37:24.729Z,14.27
2022-10-05T02:40:01.486Z,14.29
2022-10-05T02:42:43.065Z,14.31
2022-10-05T02:45:34.746Z,14.32
2022-10-05T02:48:37.171Z,14.38
2022-10-05T02:51:38.910Z,14.33
2022-10-05T02:54:25.332Z,14.33
2022-10-05T02:56:57.760Z,14.26
2022-10-05T02:59:44.039Z,14.37
2022-10-05T03:02:19.388Z,14.39
2022-10-05T03:05:06.247Z,14.36
2022-10-05T03:07:39.642Z,14.35
2022-10-05T03:10:11.700Z,14.39
2022-10-05T03:13:10.501Z,14.37
2022-10-05T03:16:21.864Z,14.38
2022-10-05T03:18:58.624Z,14.40
2022-10-05T03:21:40.655Z,14.32
2022-10-05T03:24:25.849Z,14.31
2022-10-05T03:27:06.659Z,14.30
2022-10-05T03:29:43.143Z,14.30
2022-10-05T03:32:31.038Z,14.26
2022-10-05T03:35:04.766Z,14.28
2022-10-05T03:37:47.948Z,14.27
2022-10-05T03:40:34.997Z,14.32
2022-10-05T03:43:27.283Z,14.25
2022-10-05T03:46:12.738Z,14.26
2022-10-05T03:49:01.432Z,14.23
2022-10-05T03:51:33.990Z,14.20
2022-10-05T03:54:24.840Z,14.29
2022-10-05T03:56:55.453Z,14.26
2022-10-05T03:59:32.425Z,14.24
2022-10-05T04:02:02.387Z,14.18
2022-10-05T04:04:37.298Z,14.18
2022-10-05T04:07:05.817Z,14.15
2022-10-05T04:09:53.087Z,14.19
2022-10-05T04:12:30.323Z,14.25
2022-10-05T04:15:07.801Z,14.27
2022-10-05T04:17:42.674Z,14.27
2022-10-05T04:20:18.027Z,14.26
2022-10-05T04:22:56.722Z,14.20
2022-10-05T04:25:29.517Z,14.28
2022-10-05T04:28:13.329Z,14.26
2022-10-05T04:30:43.460Z,14.22
2022-10-05T04:33:12.624Z,14.19
2022-10-05T04:36:16.596Z,14.25
2022-10-05T04:39:20.222Z,14.26
2022-10-05T04:41:52.577Z,14.14
2022-10-05T04:44:27.709Z,14.21
2022-10-05T04:47:15.485Z,14.14
2022-10-05T04:50:07.086Z,14.17
2022-10-05T04:52:47.948Z,14.18
2022-10-05T04:55:43.933Z,14.16
2022-10-05T04:58:42.410Z,14.15
2022-10-05T05:01:50.534Z,14.22
2022-10-05T05:04:19.882Z,14.14
2022-10-05T05:07:23.778Z,14.12
2022-10-05T05:10:03.149Z,14.15
2022-10-05T05:12:38.487Z,14.19
2022-10-05T05:15:28.833Z,14.15
2022-10-05T05:18:27.436Z,14.15
2022-10-05T05:21:02.150Z,14.10
2022-10-05T05:23:55.417Z,14.10
2022-10-05T05:26:30.001Z,14.10
2022-10-05T05:28:59.066Z,14.09
2022-10-05T05:31:49.767Z,14.16
2022-10-05T05:34:48.903Z,14.11
2022-10-05T05:37:30.995Z,14.12
2022-10-05T05:40:12.295Z,14.14
2022-10-05T05:43:03.359Z,14.11
2022-10-05T05:45:43.839Z,14.09
2022-10-05T05:48:30.980Z,14.15
2022-10-05T05:51:16.115Z,14.10
2022-10-05T05:53:49.548Z,14.17
2022-10-05T05:56:32.554Z,14.17
2022-10-05T05:59:25.356Z,14.19
2022-10-05T06:01:59.565Z,14.21
2022-10-05T06:04:35.360Z,14.16
2022-10-05T06:07:05.032Z,14.17
2022-10-05T06:09:43.097Z,14.22
2022-10-05T06:12:14.299Z,14.17
2022-10-05T06:14:48.014Z,14.20
2022-10-05T06:17:42.260Z,14.18
2022-10-05T06:20:59.836Z,14.23
2022-10-05T06:23:35.682Z,14.17
2022-10-05T06:26:15.089Z,14.12
2022-10-05T06:28:42.298Z,14.17
2022-10-05T06:31:40.741Z,14.17
2022-10-05T06:34:29.940Z,14.18
2022-10-05T06:37:01.618Z,14.17
2022-10-05T06:39:47.198Z,14.18
2022-10-05T06:42:41.303Z,14.20
2022-10-05T06:45:17.856Z,14.18
2022-10-05T06:47:51.824Z,14.19
2022-10-05T06:50:55.706Z,14.23
2022-10-05T06:53:44.434Z,14.27
2022-10-05T06:56:35.806Z,14.21
2022-10-05T06:59:14.144Z,14.27
2022-10-05T07:02:08.843Z,14.27
2022-10-05T07:04:37.998Z,14.26
2022-10-05T07:07:11.108Z,14.31
2022-10-05T07:10:07.925Z,14.29
2022-10-05T07:13:12.268Z,14.33
2022-10-05T07:15:44.613Z,14.36
2022-10-05T07:18:32.787Z,14.33
2022-10-05T07:21:17.611Z,14.35
2022-10-05T07:24:02.340Z,14.35
2022-10-05T07:26:51.387Z,14.37
2022-10-05T07:29:45.509Z,14.32
2022-10-05T07:32:34.015Z,14.27
2022-10-05T07:35:36.539Z,14.26
2022-10-05T07:38:12.694Z,14.33
2022-10-05T07:40:47.626Z,14.33
2022-10-05T07:43:45.288Z,14.43
2022-10-05T07:46:45.793Z,14.51
2022-10-05T07:49:25.760Z,14.39
2022-10-05T07:52:00.234Z,14.40
2022-10-05T07:54:53.272Z,14.42
2022-10-05T07:57:28.626Z,14.47
2022-10-05T08:00:11.358Z,14.43
2022-10-05T08:02:45.307Z,14.39
2022-10-05T08:05:15.496Z,14.47
2022-10-05T08:07:42.743Z,14.54
2022-10-05T08:10:33.916Z,14.50
2022-10-05T08:13:16.286Z,14.50
2022-10-05T08:15:48.287Z,14.58
2022-10-05T08:18:23.308Z,14.61
2022-10-05T08:20:54.783Z,14.68
2022-10-05T08:23:25.122Z,14.67
2022-10-05T08:26:15.718Z,14.77
2022-10-05T08:28:54.186Z,14.83
2022-10-05T08:31:26.663Z,14.90
2022-10-05T08:33:53.047Z,14.95
2022-10-05T08:36:26.443Z,15.01
2022-10-05T08:38:55.433Z,14.99
2022-10-05T08:41:50.195Z,15.06
2022-10-05T08:44:50.284Z,15.14
2022-10-05T08:47:38.631Z,15.07
2022-10-05T08:50:16.829Z,15.14
2022-10-05T08:53:35.678Z,15.15
2022-10-05T08:56:37.051Z,15.11
2022-10-05T08:59:50.257Z,15.18
2022-10-05T09:02:41.462Z,15.19
2022-10-05T09:05:14.007Z,15.22
2022-10-05T09:07:43.403Z,15.18
2022-10-05T09:10:24.646Z,15.20
2022-10-05T09:13:21.223Z,15.24
2022-10-05T09:16:16.896Z,15.22
2022-10-05T09:18:55.532Z,15.10
2022-10-05T09:21:43.366Z,15.17
2022-10-05T09:24:12.710Z,15.16
2022-10-05T09:27:16.741Z,15.17
2022-10-05T09:30:30.517Z,15.27
2022-10-05T09:33:13.456Z,15.37
2022-10-05T09:36:09.116Z,15.47
2022-10-05T09:39:13.092Z,15.52
2022-10-05T09:42:16.462Z,15.56
2022-10-05T09:44:52.165Z,15.60
2022-10-05T09:47:26.475Z,15.64
2022-10-05T09:50:17.475Z,15.81
2022-10-05T09:53:12.496Z,15.97
2022-10-05T09:56:09.819Z,15.99
2022-10-05T09:59:06.445Z,16.12
2022-10-05T10:02:04.513Z,16.15
2022-10-05T10:05:05.157Z,16.19
2022-10-05T10:07:39.113Z,16.30
2022-10-05T10:10:39.420Z,16.27
2022-10-05T10:13:36.072Z,16.41
2022-10-05T10:16:12.759Z,16.44
2022-10-05T10:18:48.345Z,16.70
2022-10-05T10:21:35.905Z,16.77
2022-10-05T10:24:08.376Z,16.97
2022-10-05T10:26:53.125Z,16.90
2022-10-05T10:29:50.483Z,16.92
2022-10-05T10:32:19.784Z,16.74
2022-10-05T10:35:18.858Z,16.61
2022-10-05T10:38:28.624Z,16.60
2022-10-05T10:41:23.399Z,16.62
2022-10-05T10:43:59.328Z,16.55
2022-10-05T10:46:37.779Z,16.57
2022-10-05T10:49:22.662Z,16.56
2022-10-05T10:52:43.490Z,16.56
2022-10-05T10:55:28.513Z,16.56
2022-10-05T10:58:27.452Z,16.66
2022-10-05T11:01:27.992Z,16.58
2022-10-05T11:04:21.059Z,16.72
2022-10-05T11:07:11.870Z,16.70
2022-10-05T11:09:53.444Z,16.64
2022-10-05T11:12:55.600Z,16.92
2022-10-05T11:15:45.640Z,16.88
2022-10-05T11:18:20.443Z,16.95
2022-10-05T11:21:17.345Z,17.03
2022-10-05T11:24:17.580Z,17.07
2022-10-05T11:27:12.397Z,17.09
2022-10-05T11:30:02.830Z,17.22
2022-10-05T11:32:42.837Z,17.28
2022-10-05T11:35:41.254Z,17.22
2022-10-05T11:38:25.991Z,17.22
2022-10-05T11:41:19.847Z,17.05
2022-10-05T11:44:07.314Z,17.06
2022-10-05T11:46:55.496Z,17.21
2022-10-05T11:49:34.057Z,17.30
2022-10-05T11:52:06.593Z,17.39
2022-10-05T11:55:09.898Z,17.39
2022-10-05T11:57:43.858Z,17.61
2022-10-05T12:00:18.395Z,17.72
2022-10-05T12:03:03.824Z,17.93
2022-10-05T12:05:36.271Z,17.83
2022-10-05T12:08:14.712Z,17.69
2022-10-05T12:11:07.771Z,18.02
2022-10-05T12:13:58.982Z,18.11
2022-10-05T12:16:41.823Z,18.66
2022-10-05T12:19:22.183Z,18.43
2022-10-05T12:21:59.840Z,18.42
2022-10-05T12:24:38.108Z,18.24
2022-10-05T12:27:11.708Z,18.61
2022-10-05T12:29:46.015Z,18.36
2022-10-05T12:32:24.004Z,18.49
2022-10-05T12:35:01.855Z,19.23
2022-10-05T12:37:43.112Z,19.09
2022-10-05T12:40:40.294Z,18.74
2022-10-05T12:43:33.364Z,19.05
2022-10-05T12:46:17.657Z,18.75
2022-10-05T12:49:15.065Z,18.78
2022-10-05T12:51:58.059Z,18.57
2022-10-05T12:54:30.070Z,18.68
2022-10-05T12:57:25.936Z,18.46
2022-10-05T13:00:04.219Z,18.33
2022-10-05T13:02:44.123Z,18.64
2022-10-05T13:05:10.422Z,18.65
2022-10-05T13:07:51.802Z,19.03
2022-10-05T13:10:31.626Z,18.96
2022-10-05T13:13:09.939Z,19.37
2022-10-05T13:15:40.877Z,19.21
2022-10-05T13:18:18.613Z,19.21
2022-10-05T13:21:13.969Z,19.21
2022-10-05T13:23:59.843Z,19.16
2022-10-05T13:26:39.854Z,19.04
2022-10-05T13:29:40.411Z,18.85
2022-10-05T13:32:12.551Z,18.76
2022-10-05T13:35:11.760Z,18.94
2022-10-05T13:37:48.966Z,18.92
2022-10-05T13:40:33.305Z,18.75
2022-10-05T13:43:14.950Z,18.75
2022-10-05T13:46:14.133Z,18.61
2022-10-05T13:49:08.446Z,18.66
2022-10-05T13:51:49.519Z,18.79
2022-10-05T13:54:27.987Z,19.01
2022-10-05T13:57:28.411Z,18.78
2022-10-05T14:00:02.125Z,18.74
2022-10-05T14:02:38.523Z,18.85
2022-10-05T14:05:19.475Z,18.77
2022-10-05T14:07:50.757Z,18.91
2022-10-05T14:10:40.416Z,19.31
2022-10-05T14:13:44.353Z,19.82
2022-10-05T14:16:13.816Z,19.64
2022-10-05T14:18:59.593Z,19.90
2022-10-05T14:21:30.338Z,19.70
2022-10-05T14:24:25.852Z,19.06
2022-10-05T14:27:25.283Z,18.91
2022-10-05T14:30:13.867Z,18.73
2022-10-05T14:32:49.361Z,18.73
2022-10-05T14:35:21.776Z,18.81
2022-10-05T14:37:56.121Z,19.01
2022-10-05T14:40:26.907Z,18.74
2022-10-05T14:42:53.760Z,18.69
2022-10-05T14:45:33.371Z,18.65
2022-10-05T14:48:01.583Z,18.73
2022-10-05T14:50:30.784Z,18.58
2022-10-05T14:53:03.775Z,18.44
2022-10-05T14:55:39.773Z,18.42
2022-10-05T14:58:36.556Z,18.37
2022-10-05T15:01:30.848Z,18.25
2022-10-05T15:04:31.847Z,18.19
2022-10-05T15:07:20.254Z,18.08
2022-10-05T15:10:14.530Z,17.99
2022-10-05T15:12:46.668Z,17.92
2022-10-05T15:15:33.337Z,17.94
2022-10-05T15:18:05.481Z,17.90
2022-10-05T15:20:44.980Z,17.95
2022-10-05T15:23:26.218Z,17.87
2022-10-05T15:26:01.732Z,17.85
2022-10-05T15:28:40.529Z,17.75
2022-10-05T15:31:35.938Z,17.65
2022-10-05T15:34:58.483Z,17.55
2022-10-05T15:37:44.652Z,17.44
2022-10-05T15:40:37.271Z,17.41
2022-10-05T15:43:12.339Z,17.34
2022-10-05T15:45:52.958Z,17.37
2022-10-05T15:48:29.124Z,17.27
2022-10-05T15:51:22.477Z,17.19
2022-10-05T15:54:41.674Z,17.22
2022-10-05T15:57:19.851Z,17.10
2022-10-05T15:59:51.308Z,17.06
2022-10-05T16:02:24.634Z,17.05
2022-10-05T16:05:05.016Z,16.98
2022-10-05T16:08:00.756Z,16.94
2022-10-05T16:10:28.278Z,17.01
2022-10-05T16:13:11.736Z,16.99
2022-10-05T16:15:48.653Z,16.98
2022-10-05T16:18:42.078Z,16.93
2022-10-05T16:21:14.658Z,16.87
2022-10-05T16:24:06.230Z,16.82
2022-10-05T16:26:50.974Z,16.78
2022-10-05T16:29:24.761Z,16.75
2022-10-05T16:32:00.063Z,16.72
2022-10-05T16:34:46.124Z,16.65
2022-10-05T16:37:17.241Z,16.64
2022-10-05T16:40:00.108Z,16.62
2022-10-05T16:43:18.399Z,16.63
2022-10-05T16:45:56.755Z,16.61
2022-10-05T16:48:28.782Z,16.58
2022-10-05T16:51:12.243Z,16.61
2022-10-05T16:53:44.006Z,16.58
2022-10-05T16:56:20.492Z,16.57
2022-10-05T16:59:37.500Z,16.54
2022-10-05T17:02:30.029Z,16.53
2022-10-05T17:05:24.198Z,16.52
2022-10-05T17:08:13.468Z,16.51
2022-10-05T17:11:10.506Z,16.48
2022-10-05T17:13:47.941Z,16.48
2022-10-05T17:16:34.651Z,16.48
2022-10-05T17:19:21.313Z,16.50
2022-10-05T17:22:08.758Z,16.51
2022-10-05T17:25:02.754Z,16.51
2022-10-05T17:27:35.225Z,16.47
2022-10-05T17:30:40.543Z,16.48
2022-10-05T17:33:13.987Z,16.50
2022-10-05T17:35:52.630Z,16.48
2022-10-05T17:38:40.570Z,16.50
2022-10-05T17:41:09.809Z,16.50
2022-10-05T17:43:36.404Z,16.54
2022-10-05T17:46:06.654Z,16.51
2022-10-05T17:48:49.777Z,16.49
2022-10-05T17:52:04.010Z,16.49
2022-10-05T17:55:11.583Z,16.52
2022-10-05T17:57:39.544Z,16.54
2022-10-05T18:00:29.297Z,16.54
2022-10-05T18:02:57.435Z,16.54
2022-10-05T18:05:30.280Z,16.55
2022-10-05T18:08:11.610Z,16.56
2022-10-05T18:10:58.647Z,16.55
2022-10-05T18:13:50.253Z,16.60
2022-10-05T18:16:54.450Z,16.60
2022-10-05T18:19:22.233Z,16.58
2022-10-05T18:22:03.480Z,16.59
2022-10-05T18:24:52.959Z,16.60
2022-10-05T18:27:34.443Z,16.61
2022-10-05T18:30:24.801Z,16.59
2022-10-05T18:33:09.541Z,16.61
2022-10-05T18:35:37.099Z,16.62
2022-10-05T18:38:42.191Z,16.62
2022-10-05T18:41:20.525Z,16.63
2022-10-05T18:43:55.784Z,16.62
2022-10-05T18:46:24.917Z,16.66
2022-10-05T18:49:19.649Z,16.67
2022-10-05T18:52:00.394Z,16.67
2022-10-05T18:54:33.054Z,16.68
2022-10-05T18:57:20.019Z,16.68
2022-10-05T19:00:01.308Z,16.68
2022-10-05T19:02:38.360Z,16.71
2022-10-05T19:05:46.315Z,16.72
2022-10-05T19:08:32.968Z,16.72
2022-10-05T19:11:12.588Z,16.74
2022-10-05T19:13:45.105Z,16.75
2022-10-05T19:16:17.000Z,16.75
2022-10-05T19:19:11.131Z,16.77
2022-10-05T19:21:38.123Z,16.82
2022-10-05T19:24:24.692Z,16.78
2022-10-05T19:26:56.886Z,16.84
2022-10-05T19:29:57.398Z,16.86
2022-10-05T19:33:00.351Z,16.96
2022-10-05T19:35:38.543Z,16.99
2022-10-05T19:38:25.349Z,17.00
2022-10-05T19:41:15.966Z,16.98
2022-10-05T19:44:06.662Z,17.02
2022-10-05T19:46:54.019Z,17.02
2022-10-05T19:49:47.487Z,16.94
2022-10-05T19:52:36.463Z,16.64
2022-10-05T19:55:31.095Z,16.46
2022-10-05T19:58:01.243Z,16.39
2022-10-05T20:00:33.062Z,16.36
2022-10-05T20:03:11.887Z,16.35
2022-10-05T20:05:39.604Z,16.47
2022-10-05T20:08:06.543Z,16.53
2022-10-05T20:10:33.580Z,16.57
2022-10-05T20:13:02.371Z,16.57
2022-10-05T20:15:49.715Z,16.60
2022-10-05T20:18:54.326Z,16.61
2022-10-05T20:21:39.470Z,16.62
2022-10-05T20:24:09.549Z,16.39
2022-10-05T20:27:02.006Z,15.91
2022-10-05T20:29:29.895Z,15.54
2022-10-05T20:31:57.029Z,15.44
2022-10-05T20:34:24.078Z,15.39
2022-10-05T20:36:51.464Z,15.42
2022-10-05T20:39:18.704Z,15.19
2022-10-05T20:41:45.662Z,15.09
2022-10-05T20:44:13.119Z,15.06
2022-10-05T20:46:42.785Z,15.11
2022-10-05T20:49:10.730Z,14.96
2022-10-05T20:51:40.280Z,14.83
2022-10-05T20:54:07.943Z,14.81
2022-10-05T20:56:34.489Z,14.74
2022-10-05T20:59:00.860Z,14.76
2022-10-05T21:01:28.826Z,14.71
2022-10-05T21:03:55.487Z,14.68
2022-10-05T21:06:22.424Z,14.69
2022-10-05T21:08:51.401Z,14.72
2022-10-05T21:11:17.855Z,14.70
2022-10-05T21:13:45.328Z,14.61
2022-10-05T21:16:15.455Z,14.57
2022-10-05T21:18:44.348Z,14.53
2022-10-05T21:21:11.091Z,14.55
2022-10-05T21:23:37.428Z,14.50
2022-10-05T21:26:03.924Z,14.38
2022-10-05T21:28:31.753Z,14.38
2022-10-05T21:30:58.471Z,14.39
2022-10-05T21:33:25.263Z,14.36
2022-10-05T21:35:51.962Z,14.39
2022-10-05T21:38:18.417Z,14.42
2022-10-05T21:40:45.489Z,14.40
2022-10-05T21:43:13.347Z,14.39
2022-10-05T21:45:40.735Z,14.38
2022-10-05T21:48:08.103Z,14.33
2022-10-05T21:50:35.232Z,14.39
2022-10-05T21:53:04.359Z,14.40
2022-10-05T21:55:32.891Z,14.28
2022-10-05T21:58:01.172Z,14.30
2022-10-05T22:00:27.691Z,14.22
2022-10-05T22:02:54.120Z,14.28
2022-10-05T22:05:20.621Z,14.28
2022-10-05T22:07:47.099Z,14.08
2022-10-05T22:10:13.538Z,14.18
2022-10-05T22:12:42.554Z,14.03
2022-10-05T22:15:09.560Z,14.08
2022-10-05T22:17:36.148Z,13.96
2022-10-05T22:20:03.242Z,14.05
2022-10-05T22:22:29.867Z,13.99
2022-10-05T22:24:56.634Z,14.00
2022-10-05T22:27:25.509Z,14.04
2022-10-05T22:29:52.512Z,13.99
2022-10-05T22:32:18.881Z,13.87
2022-10-05T22:34:45.332Z,13.88
2022-10-05T22:37:13.226Z,13.84
2022-10-05T22:39:40.417Z,13.80
2022-10-05T22:42:07.525Z,13.90
2022-10-05T22:44:34.842Z,13.88
2022-10-05T22:47:01.261Z,13.92
2022-10-05T22:49:28.011Z,13.87
2022-10-05T22:51:54.854Z,13.80
2022-10-05T22:54:21.547Z,13.82
2022-10-05T22:56:47.933Z,13.86
2022-10-05T22:59:14.316Z,13.87
2022-10-05T23:01:40.722Z,13.89
2022-10-05T23:04:08.785Z,13.92
2022-10-05T23:06:35.142Z,13.91
2022-10-05T23:09:01.485Z,13.82
2022-10-05T23:11:29.655Z,13.90
2022-10-05T23:13:57.160Z,13.94
2022-10-05T23:16:26.218Z,13.84
2022-10-05T23:18:54.047Z,13.86
2022-10-05T23:21:22.688Z,13.85
2022-10-05T23:23:51.310Z,13.86
2022-10-05T23:26:20.381Z,13.82
2022-10-05T23:28:47.317Z,13.77
2022-10-05T23:31:16.929Z,13.72
2022-10-05T23:33:43.621Z,13.73
2022-10-05T23:36:14.447Z,13.68
2022-10-05T23:38:40.860Z,13.78
2022-10-05T23:41:08.674Z,13.72
2022-10-05T23:43:36.730Z,13.63
2022-10-05T23:46:05.183Z,13.65
2022-10-05T23:48:32.299Z,13.66
2022-10-05T23:50:59.353Z,13.51
2022-10-05T23:53:25.777Z,13.62
2022-10-05T23:55:54.885Z,13.45
2022-10-05T23:58:22.350Z,13.54
